createdAt,value
2018-10-07T00:00:24.887Z,15.21
2018-10-07T00:01:24.865Z,15.16
2018-10-07T00:02:24.849Z,15.16
2018-10-07T00:03:24.844Z,15.16
2018-10-07T00:04:24.831Z,15.13
2018-10-07T00:05:24.832Z,15.13
2018-10-07T00:06:24.807Z,15.07
2018-10-07T00:07:24.811Z,15.06
2018-10-07T00:08:24.797Z,15.11
2018-10-07T00:09:24.773Z,15.10
2018-10-07T00:10:24.764Z,15.06
2018-10-07T00:11:24.752Z,15.06
2018-10-07T00:12:24.755Z,15.09
2018-10-07T00:13:24.727Z,14.99
2018-10-07T00:14:24.717Z,15.01
2018-10-07T00:15:24.707Z,14.92
2018-10-07T00:16:24.696Z,14.95
2018-10-07T00:17:24.722Z,14.96
2018-10-07T00:18:24.672Z,14.95
2018-10-07T00:19:24.663Z,14.94
2018-10-07T00:20:24.653Z,14.89
2018-10-07T00:21:24.640Z,14.88
2018-10-07T00:22:24.628Z,14.88
2018-10-07T00:23:24.649Z,14.96
2018-10-07T00:24:24.606Z,14.95
2018-10-07T00:25:24.593Z,14.99
2018-10-07T00:26:24.585Z,15.01
2018-10-07T00:27:24.576Z,14.98
2018-10-07T00:28:24.562Z,14.94
2018-10-07T00:29:24.560Z,14.89
2018-10-07T00:30:24.541Z,14.83
2018-10-07T00:31:24.547Z,14.88
2018-10-07T00:32:24.517Z,14.92
2018-10-07T00:33:24.506Z,14.91
2018-10-07T00:34:24.494Z,14.89
2018-10-07T00:35:24.486Z,14.89
2018-10-07T00:36:24.489Z,14.89
2018-10-07T00:37:24.463Z,14.89
2018-10-07T00:38:24.453Z,14.81
2018-10-07T00:39:24.438Z,14.86
2018-10-07T00:40:24.432Z,14.86
2018-10-07T00:41:24.435Z,14.83
2018-10-07T00:42:24.408Z,14.77
2018-10-07T00:43:24.395Z,14.83
2018-10-07T00:44:24.387Z,14.89
2018-10-07T00:45:24.372Z,14.81
2018-10-07T00:46:24.378Z,14.80
2018-10-07T00:47:24.369Z,14.80
2018-10-07T00:48:24.341Z,14.88
2018-10-07T00:49:24.333Z,14.84
2018-10-07T00:50:24.321Z,14.75
2018-10-07T00:51:24.320Z,14.80
2018-10-07T00:52:24.310Z,14.69
2018-10-07T00:53:24.324Z,14.73
2018-10-07T00:54:24.274Z,14.83
2018-10-07T00:55:24.266Z,14.72
2018-10-07T00:56:24.253Z,14.75
2018-10-07T00:57:24.243Z,14.80
2018-10-07T00:58:24.232Z,14.80
2018-10-07T00:59:24.232Z,14.84
2018-10-07T01:00:24.208Z,14.70
2018-10-07T01:01:24.196Z,14.78
2018-10-07T01:02:24.188Z,14.72
2018-10-07T01:03:24.175Z,14.72
2018-10-07T01:04:24.179Z,14.72
2018-10-07T01:05:24.154Z,14.77
2018-10-07T01:06:24.141Z,14.69
2018-10-07T01:07:24.132Z,14.70
2018-10-07T01:08:24.118Z,14.68
2018-10-07T01:09:24.123Z,14.65
2018-10-07T01:10:24.099Z,14.62
2018-10-07T01:11:24.086Z,14.58
2018-10-07T01:12:24.076Z,14.69
2018-10-07T01:13:24.076Z,14.68
2018-10-07T01:14:24.055Z,14.65
2018-10-07T01:15:24.054Z,14.73
2018-10-07T01:16:24.031Z,14.75
2018-10-07T01:17:24.018Z,14.78
2018-10-07T01:18:24.046Z,14.68
2018-10-07T01:19:23.999Z,14.62
2018-10-07T01:20:23.987Z,14.62
2018-10-07T01:21:23.973Z,14.70
2018-10-07T01:22:23.964Z,14.69
2018-10-07T01:23:23.950Z,14.72
2018-10-07T01:24:23.973Z,14.72
2018-10-07T01:25:23.931Z,14.75
2018-10-07T01:26:23.920Z,14.68
2018-10-07T01:27:23.909Z,14.69
2018-10-07T01:28:23.895Z,14.78
2018-10-07T01:29:23.889Z,14.77
2018-10-07T01:30:23.883Z,14.70
2018-10-07T01:31:23.884Z,14.69
2018-10-07T01:32:23.850Z,14.72
2018-10-07T01:33:23.844Z,14.73
2018-10-07T01:34:23.829Z,14.61
2018-10-07T01:35:23.823Z,14.73
2018-10-07T01:36:23.845Z,14.70
2018-10-07T01:37:23.800Z,14.69
2018-10-07T01:38:23.789Z,14.72
2018-10-07T01:39:23.776Z,14.78
2018-10-07T01:40:23.766Z,14.78
2018-10-07T01:41:23.754Z,14.69
2018-10-07T01:42:23.757Z,14.68
2018-10-07T01:43:23.732Z,14.69
2018-10-07T01:44:23.741Z,14.75
2018-10-07T01:45:23.706Z,14.55
2018-10-07T01:46:23.695Z,14.58
2018-10-07T01:47:23.688Z,14.55
2018-10-07T01:48:23.675Z,14.55
2018-10-07T01:49:23.663Z,14.58
2018-10-07T01:50:23.663Z,14.51
2018-10-07T01:51:23.642Z,14.54
2018-10-07T01:52:23.673Z,14.52
2018-10-07T01:53:23.619Z,14.58
2018-10-07T01:54:23.608Z,14.60
2018-10-07T01:55:23.600Z,14.58
2018-10-07T01:56:23.587Z,14.52
2018-10-07T01:57:23.576Z,14.58
2018-10-07T01:58:23.606Z,14.60
2018-10-07T01:59:23.629Z,14.58
2018-10-07T02:00:23.543Z,14.65
2018-10-07T02:01:23.531Z,14.52
2018-10-07T02:02:23.519Z,14.55
2018-10-07T02:03:23.508Z,14.61
2018-10-07T02:04:23.513Z,14.60
2018-10-07T02:05:23.488Z,14.64
2018-10-07T02:06:23.474Z,14.61
2018-10-07T02:07:23.466Z,14.61
2018-10-07T02:08:23.452Z,14.61
2018-10-07T02:09:23.455Z,14.75
2018-10-07T02:10:23.434Z,14.60
2018-10-07T02:11:23.424Z,14.69
2018-10-07T02:12:23.411Z,14.68
2018-10-07T02:13:23.430Z,14.72
2018-10-07T02:14:23.387Z,14.70
2018-10-07T02:15:23.373Z,14.70
2018-10-07T02:16:23.366Z,14.77
2018-10-07T02:17:23.355Z,14.72
2018-10-07T02:18:23.341Z,14.73
2018-10-07T02:19:23.344Z,14.78
2018-10-07T02:20:23.322Z,14.73
2018-10-07T02:21:23.310Z,14.70
2018-10-07T02:22:23.295Z,14.69
2018-10-07T02:23:23.285Z,14.65
2018-10-07T02:24:23.318Z,14.62
2018-10-07T02:25:23.267Z,14.68
2018-10-07T02:26:23.317Z,14.62
2018-10-07T02:27:23.243Z,14.73
2018-10-07T02:28:23.235Z,14.62
2018-10-07T02:29:23.217Z,14.68
2018-10-07T02:30:23.222Z,14.73
2018-10-07T02:31:23.199Z,14.60
2018-10-07T02:32:23.184Z,14.77
2018-10-07T02:33:23.177Z,14.69
2018-10-07T02:34:23.166Z,14.62
2018-10-07T02:35:23.166Z,14.69
2018-10-07T02:36:23.143Z,14.72
2018-10-07T02:37:23.134Z,14.68
2018-10-07T02:38:23.118Z,14.62
2018-10-07T02:39:23.107Z,14.57
2018-10-07T02:40:23.114Z,14.52
2018-10-07T02:41:23.102Z,14.42
2018-10-07T02:42:23.088Z,14.45
2018-10-07T02:43:23.065Z,14.33
2018-10-07T02:44:23.054Z,14.17
2018-10-07T02:45:23.042Z,14.15
2018-10-07T02:46:23.066Z,14.10
2018-10-07T02:47:23.019Z,13.99
2018-10-07T02:48:23.009Z,14.03
2018-10-07T02:49:23.001Z,13.99
2018-10-07T02:50:22.988Z,14.03
2018-10-07T02:51:22.975Z,13.97
2018-10-07T02:52:23.001Z,13.89
2018-10-07T02:53:23.091Z,13.84
2018-10-07T02:54:22.942Z,13.71
2018-10-07T02:55:22.933Z,13.69
2018-10-07T02:56:22.919Z,13.66
2018-10-07T02:57:22.911Z,13.52
2018-10-07T02:58:22.926Z,13.57
2018-10-07T02:59:22.886Z,13.54
2018-10-07T03:00:22.879Z,13.49
2018-10-07T03:01:22.864Z,13.44
2018-10-07T03:02:22.854Z,13.48
2018-10-07T03:03:22.846Z,13.38
2018-10-07T03:04:22.868Z,13.29
2018-10-07T03:05:22.823Z,13.14
2018-10-07T03:06:22.812Z,13.00
2018-10-07T03:07:22.799Z,13.01
2018-10-07T03:08:22.790Z,12.86
2018-10-07T03:09:22.776Z,12.87
2018-10-07T03:10:22.780Z,12.75
2018-10-07T03:11:22.755Z,12.72
2018-10-07T03:12:22.747Z,12.72
2018-10-07T03:13:22.731Z,12.74
2018-10-07T03:14:22.744Z,12.68
2018-10-07T03:15:22.711Z,12.54
2018-10-07T03:16:22.703Z,12.49
2018-10-07T03:17:22.692Z,12.37
2018-10-07T03:18:22.681Z,12.50
2018-10-07T03:19:22.669Z,12.32
2018-10-07T03:20:22.679Z,12.20
2018-10-07T03:21:22.649Z,12.10
2018-10-07T03:22:22.638Z,11.88
2018-10-07T03:23:22.626Z,11.99
2018-10-07T03:24:22.613Z,11.85
2018-10-07T03:25:22.601Z,11.85
2018-10-07T03:26:22.605Z,11.83
2018-10-07T03:27:22.583Z,11.80
2018-10-07T03:28:22.572Z,11.72
2018-10-07T03:29:22.623Z,11.67
2018-10-07T03:30:22.571Z,11.57
2018-10-07T03:31:22.539Z,11.49
2018-10-07T03:32:22.528Z,11.47
2018-10-07T03:33:22.517Z,11.43
2018-10-07T03:34:22.504Z,11.35
2018-10-07T03:35:22.498Z,11.35
2018-10-07T03:36:22.492Z,11.27
2018-10-07T03:37:22.471Z,11.32
2018-10-07T03:38:22.459Z,11.25
2018-10-07T03:39:22.450Z,11.21
2018-10-07T03:40:22.438Z,11.32
2018-10-07T03:41:22.436Z,11.22
2018-10-07T03:42:22.421Z,11.07
2018-10-07T03:43:22.408Z,11.03
2018-10-07T03:44:22.426Z,10.97
2018-10-07T03:45:22.387Z,11.00
2018-10-07T03:46:22.371Z,10.99
2018-10-07T03:47:22.361Z,10.96
2018-10-07T03:48:22.351Z,11.02
2018-10-07T03:49:22.339Z,10.94
2018-10-07T03:50:22.352Z,10.94
2018-10-07T03:51:22.316Z,10.89
2018-10-07T03:52:22.306Z,10.79
2018-10-07T03:53:22.296Z,10.78
2018-10-07T03:54:22.284Z,10.74
2018-10-07T03:55:22.271Z,10.84
2018-10-07T03:56:22.283Z,10.74
2018-10-07T03:57:22.249Z,10.68
2018-10-07T03:58:22.254Z,10.64
2018-10-07T03:59:22.230Z,10.67
2018-10-07T04:00:22.216Z,10.52
2018-10-07T04:01:22.204Z,10.55
2018-10-07T04:02:22.207Z,10.45
2018-10-07T04:03:22.185Z,10.47
2018-10-07T04:04:22.171Z,10.52
2018-10-07T04:05:22.160Z,10.45
2018-10-07T04:06:22.153Z,10.40
2018-10-07T04:07:22.159Z,10.34
2018-10-07T04:08:22.126Z,10.36
2018-10-07T04:09:22.119Z,10.40
2018-10-07T04:10:22.108Z,10.34
2018-10-07T04:11:22.097Z,10.38
2018-10-07T04:12:22.090Z,10.38
2018-10-07T04:13:22.082Z,10.29
2018-10-07T04:14:22.076Z,10.26
2018-10-07T04:15:22.048Z,10.32
2018-10-07T04:16:22.041Z,10.27
2018-10-07T04:17:22.030Z,10.27
2018-10-07T04:18:22.056Z,10.30
2018-10-07T04:19:22.005Z,10.23
2018-10-07T04:20:21.993Z,10.22
2018-10-07T04:21:21.989Z,10.32
2018-10-07T04:22:21.977Z,10.23
2018-10-07T04:23:21.960Z,10.25
2018-10-07T04:24:21.972Z,10.22
2018-10-07T04:25:21.938Z,10.26
2018-10-07T04:26:21.929Z,10.26
2018-10-07T04:27:21.923Z,10.32
2018-10-07T04:28:21.907Z,10.25
2018-10-07T04:29:21.896Z,10.32
2018-10-07T04:30:21.914Z,10.20
2018-10-07T04:31:21.875Z,10.17
2018-10-07T04:32:21.866Z,10.22
2018-10-07T04:33:21.854Z,10.23
2018-10-07T04:34:21.844Z,10.25
2018-10-07T04:35:21.833Z,10.23
2018-10-07T04:36:21.832Z,10.22
2018-10-07T04:37:21.810Z,10.12
2018-10-07T04:38:21.799Z,10.17
2018-10-07T04:39:21.785Z,10.14
2018-10-07T04:40:21.776Z,10.20
2018-10-07T04:41:21.782Z,10.15
2018-10-07T04:42:21.754Z,10.12
2018-10-07T04:43:21.746Z,10.08
2018-10-07T04:44:21.732Z,10.11
2018-10-07T04:45:21.724Z,10.15
2018-10-07T04:46:21.757Z,10.12
2018-10-07T04:47:21.700Z,9.97
2018-10-07T04:48:21.692Z,10.02
2018-10-07T04:49:21.681Z,10.01
2018-10-07T04:50:21.671Z,9.93
2018-10-07T04:51:21.657Z,9.94
2018-10-07T04:52:21.670Z,9.97
2018-10-07T04:53:21.637Z,9.99
2018-10-07T04:54:21.624Z,10.04
2018-10-07T04:55:21.616Z,9.89
2018-10-07T04:56:21.611Z,9.96
2018-10-07T04:57:21.592Z,9.94
2018-10-07T04:58:21.595Z,9.99
2018-10-07T04:59:21.571Z,10.02
2018-10-07T05:00:21.634Z,10.01
2018-10-07T05:01:21.547Z,10.04
2018-10-07T05:02:21.539Z,10.07
2018-10-07T05:03:21.542Z,9.99
2018-10-07T05:04:21.533Z,10.09
2018-10-07T05:05:21.505Z,10.05
2018-10-07T05:06:21.492Z,10.08
2018-10-07T05:07:21.484Z,10.08
2018-10-07T05:08:21.472Z,10.09
2018-10-07T05:09:21.471Z,10.08
2018-10-07T05:10:21.452Z,10.08
2018-10-07T05:11:21.442Z,10.08
2018-10-07T05:12:21.547Z,10.11
2018-10-07T05:13:21.434Z,10.07
2018-10-07T05:14:21.406Z,10.11
2018-10-07T05:15:21.398Z,9.99
2018-10-07T05:16:21.385Z,10.09
2018-10-07T05:17:21.384Z,10.05
2018-10-07T05:18:21.363Z,10.01
2018-10-07T05:19:21.355Z,10.09
2018-10-07T05:20:21.357Z,10.05
2018-10-07T05:21:21.335Z,10.09
2018-10-07T05:22:21.320Z,10.01
2018-10-07T05:23:21.312Z,10.05
2018-10-07T05:24:21.313Z,9.99
2018-10-07T05:25:21.289Z,10.05
2018-10-07T05:26:21.292Z,9.94
2018-10-07T05:27:21.268Z,9.89
2018-10-07T05:28:21.257Z,9.90
2018-10-07T05:29:21.244Z,9.93
2018-10-07T05:30:21.248Z,9.84
2018-10-07T05:31:21.225Z,9.90
2018-10-07T05:32:21.212Z,9.94
2018-10-07T05:33:21.253Z,9.81
2018-10-07T05:34:21.189Z,9.83
2018-10-07T05:35:21.197Z,9.84
2018-10-07T05:36:21.168Z,9.89
2018-10-07T05:37:21.159Z,9.94
2018-10-07T05:38:21.148Z,9.94
2018-10-07T05:39:21.134Z,9.90
2018-10-07T05:40:21.123Z,9.89
2018-10-07T05:41:21.128Z,9.86
2018-10-07T05:42:21.117Z,9.96
2018-10-07T05:43:21.096Z,9.90
2018-10-07T05:44:21.136Z,9.90
2018-10-07T05:45:21.069Z,9.90
2018-10-07T05:46:21.072Z,9.94
2018-10-07T05:47:21.050Z,9.91
2018-10-07T05:48:21.040Z,9.89
2018-10-07T05:49:21.027Z,9.86
2018-10-07T05:50:21.015Z,9.89
2018-10-07T05:51:21.019Z,9.81
2018-10-07T05:52:20.996Z,9.79
2018-10-07T05:53:20.981Z,9.78
2018-10-07T05:54:20.973Z,9.81
2018-10-07T05:55:20.964Z,9.76
2018-10-07T05:56:20.949Z,9.76
2018-10-07T05:57:20.956Z,9.75
2018-10-07T05:58:20.930Z,9.75
2018-10-07T05:59:20.921Z,9.76
2018-10-07T06:00:20.909Z,9.79
2018-10-07T06:01:20.900Z,9.83
2018-10-07T06:02:20.907Z,9.79
2018-10-07T06:03:20.875Z,9.75
2018-10-07T06:04:20.862Z,9.81
2018-10-07T06:05:20.850Z,9.84
2018-10-07T06:06:20.840Z,9.90
2018-10-07T06:07:20.828Z,9.83
2018-10-07T06:08:20.850Z,9.81
2018-10-07T06:09:20.809Z,9.86
2018-10-07T06:10:20.796Z,9.75
2018-10-07T06:11:20.782Z,9.74
2018-10-07T06:12:20.772Z,9.72
2018-10-07T06:13:20.764Z,9.71
2018-10-07T06:14:20.766Z,9.74
2018-10-07T06:15:20.739Z,9.74
2018-10-07T06:16:20.727Z,9.75
2018-10-07T06:17:20.720Z,9.78
2018-10-07T06:18:20.729Z,9.78
2018-10-07T06:19:20.698Z,9.74
2018-10-07T06:20:20.705Z,9.78
2018-10-07T06:21:20.722Z,9.83
2018-10-07T06:22:20.664Z,9.83
2018-10-07T06:23:20.654Z,9.69
2018-10-07T06:24:20.653Z,9.74
2018-10-07T06:25:20.644Z,9.79
2018-10-07T06:26:20.622Z,9.74
2018-10-07T06:27:20.609Z,9.69
2018-10-07T06:28:20.596Z,9.68
2018-10-07T06:29:20.583Z,9.71
2018-10-07T06:30:20.605Z,9.76
2018-10-07T06:31:20.566Z,9.61
2018-10-07T06:32:20.554Z,9.71
2018-10-07T06:33:20.542Z,9.65
2018-10-07T06:34:20.533Z,9.64
2018-10-07T06:35:20.520Z,9.61
2018-10-07T06:36:20.535Z,9.57
2018-10-07T06:37:20.500Z,9.65
2018-10-07T06:38:20.489Z,9.66
2018-10-07T06:39:20.476Z,9.78
2018-10-07T06:40:20.465Z,9.72
2018-10-07T06:41:20.553Z,9.74
2018-10-07T06:42:20.445Z,9.69
2018-10-07T06:43:20.431Z,9.72
2018-10-07T06:44:20.420Z,9.75
2018-10-07T06:45:20.421Z,9.65
2018-10-07T06:46:20.398Z,9.66
2018-10-07T06:47:20.401Z,9.66
2018-10-07T06:48:20.376Z,9.65
2018-10-07T06:49:20.366Z,9.71
2018-10-07T06:50:20.358Z,9.75
2018-10-07T06:51:20.352Z,9.68
2018-10-07T06:52:20.380Z,9.69
2018-10-07T06:53:20.321Z,9.65
2018-10-07T06:54:20.309Z,9.69
2018-10-07T06:55:20.300Z,9.76
2018-10-07T06:56:20.287Z,9.74
2018-10-07T06:57:20.291Z,9.79
2018-10-07T06:58:20.267Z,9.78
2018-10-07T06:59:20.254Z,9.81
2018-10-07T07:00:20.243Z,9.90
2018-10-07T07:01:20.234Z,9.89
2018-10-07T07:02:20.252Z,9.89
2018-10-07T07:03:20.212Z,9.86
2018-10-07T07:04:20.203Z,9.99
2018-10-07T07:05:20.189Z,10.05
2018-10-07T07:06:20.198Z,10.02
2018-10-07T07:07:20.165Z,10.11
2018-10-07T07:08:20.168Z,10.08
2018-10-07T07:09:20.145Z,10.23
2018-10-07T07:10:20.134Z,10.23
2018-10-07T07:11:20.126Z,10.34
2018-10-07T07:12:20.111Z,10.41
2018-10-07T07:13:20.112Z,10.45
2018-10-07T07:14:20.092Z,10.44
2018-10-07T07:15:20.081Z,10.52
2018-10-07T07:16:20.066Z,10.55
2018-10-07T07:17:20.057Z,10.63
2018-10-07T07:18:20.057Z,10.78
2018-10-07T07:19:20.039Z,10.74
2018-10-07T07:20:20.053Z,10.79
2018-10-07T07:21:20.011Z,10.76
2018-10-07T07:22:20.001Z,10.85
2018-10-07T07:23:20.006Z,10.86
2018-10-07T07:24:19.980Z,10.97
2018-10-07T07:25:19.972Z,11.00
2018-10-07T07:26:19.961Z,11.06
2018-10-07T07:27:19.952Z,10.94
2018-10-07T07:28:19.937Z,10.84
2018-10-07T07:29:19.937Z,10.76
2018-10-07T07:30:19.928Z,10.71
2018-10-07T07:31:19.963Z,10.76
2018-10-07T07:32:19.893Z,10.82
2018-10-07T07:33:19.883Z,10.84
2018-10-07T07:34:19.871Z,10.74
2018-10-07T07:35:19.875Z,10.89
2018-10-07T07:36:19.847Z,10.92
2018-10-07T07:37:19.839Z,11.10
2018-10-07T07:38:19.836Z,11.18
2018-10-07T07:39:19.827Z,11.32
2018-10-07T07:40:19.806Z,11.44
2018-10-07T07:41:20.706Z,11.51
2018-10-07T07:42:19.837Z,11.60
2018-10-07T07:43:19.783Z,11.64
2018-10-07T07:44:19.762Z,11.62
2018-10-07T07:45:19.752Z,11.46
2018-10-07T07:46:19.747Z,11.40
2018-10-07T07:47:19.727Z,11.32
2018-10-07T07:48:19.717Z,11.27
2018-10-07T07:49:19.703Z,11.33
2018-10-07T07:50:19.732Z,11.35
2018-10-07T07:51:19.683Z,11.36
2018-10-07T07:52:19.673Z,11.43
2018-10-07T07:53:19.662Z,11.52
2018-10-07T07:54:19.648Z,11.69
2018-10-07T07:55:19.641Z,11.80
2018-10-07T07:56:19.643Z,11.88
2018-10-07T07:57:19.651Z,11.98
2018-10-07T07:58:19.604Z,12.04
2018-10-07T07:59:19.596Z,12.04
2018-10-07T08:00:19.582Z,12.10
2018-10-07T08:01:19.577Z,12.16
2018-10-07T08:02:19.561Z,12.32
2018-10-07T08:03:19.565Z,12.47
2018-10-07T08:04:19.537Z,12.52
2018-10-07T08:05:19.529Z,12.57
2018-10-07T08:06:19.516Z,12.57
2018-10-07T08:07:19.523Z,12.75
2018-10-07T08:08:19.510Z,12.75
2018-10-07T08:09:19.487Z,12.92
2018-10-07T08:10:19.481Z,13.01
2018-10-07T08:11:19.465Z,13.12
2018-10-07T08:12:19.463Z,13.25
2018-10-07T08:13:19.442Z,13.28
2018-10-07T08:14:19.445Z,13.46
2018-10-07T08:15:19.419Z,13.55
2018-10-07T08:16:19.413Z,13.59
2018-10-07T08:17:19.461Z,13.66
2018-10-07T08:18:19.403Z,13.71
2018-10-07T08:19:19.378Z,13.87
2018-10-07T08:20:19.364Z,14.03
2018-10-07T08:21:19.356Z,14.14
2018-10-07T08:22:19.343Z,14.28
2018-10-07T08:23:19.390Z,14.45
2018-10-07T08:24:19.320Z,14.47
2018-10-07T08:25:19.311Z,14.51
2018-10-07T08:26:19.300Z,14.42
2018-10-07T08:27:19.299Z,14.43
2018-10-07T08:28:19.277Z,14.57
2018-10-07T08:29:19.298Z,14.73
2018-10-07T08:30:19.256Z,14.84
2018-10-07T08:31:19.246Z,15.06
2018-10-07T08:32:19.233Z,15.10
2018-10-07T08:33:19.221Z,15.17
2018-10-07T08:34:19.211Z,15.35
2018-10-07T08:35:19.302Z,15.39
2018-10-07T08:36:19.192Z,15.38
2018-10-07T08:37:19.179Z,15.53
2018-10-07T08:38:19.176Z,15.57
2018-10-07T08:39:19.157Z,15.50
2018-10-07T08:40:19.163Z,15.50
2018-10-07T08:41:19.134Z,15.59
2018-10-07T08:42:19.125Z,15.62
2018-10-07T08:43:19.115Z,15.69
2018-10-07T08:44:19.101Z,15.72
2018-10-07T08:45:19.091Z,15.59
2018-10-07T08:46:19.124Z,15.62
2018-10-07T08:47:19.071Z,15.59
2018-10-07T08:48:19.058Z,15.39
2018-10-07T08:49:19.047Z,15.17
2018-10-07T08:50:19.041Z,15.36
2018-10-07T08:51:19.026Z,15.47
2018-10-07T08:52:19.028Z,15.64
2018-10-07T08:53:19.006Z,15.78
2018-10-07T08:54:18.995Z,15.93
2018-10-07T08:55:18.995Z,15.96
2018-10-07T08:56:19.003Z,16.00
2018-10-07T08:57:18.965Z,16.17
2018-10-07T08:58:18.949Z,16.27
2018-10-07T08:59:18.939Z,16.25
2018-10-07T09:00:18.951Z,16.24
2018-10-07T09:01:18.915Z,16.23
2018-10-07T09:02:18.905Z,16.34
2018-10-07T09:03:18.892Z,16.41
2018-10-07T09:04:18.887Z,16.41
2018-10-07T09:05:18.873Z,16.42
2018-10-07T09:06:18.881Z,16.39
2018-10-07T09:07:18.848Z,16.42
2018-10-07T09:08:18.840Z,16.60
2018-10-07T09:09:18.832Z,16.66
2018-10-07T09:10:18.816Z,16.85
2018-10-07T09:11:18.806Z,16.98
2018-10-07T09:12:18.813Z,17.08
2018-10-07T09:13:18.783Z,17.15
2018-10-07T09:14:18.774Z,17.11
2018-10-07T09:15:18.761Z,16.96
2018-10-07T09:16:18.750Z,16.89
2018-10-07T09:17:18.750Z,16.85
2018-10-07T09:18:18.744Z,16.89
2018-10-07T09:19:18.729Z,16.98
2018-10-07T09:20:18.705Z,17.07
2018-10-07T09:21:18.704Z,17.07
2018-10-07T09:22:18.684Z,17.08
2018-10-07T09:23:18.687Z,17.04
2018-10-07T09:24:18.665Z,17.18
2018-10-07T09:25:18.658Z,17.16
2018-10-07T09:26:18.643Z,17.11
2018-10-07T09:27:18.771Z,17.01
2018-10-07T09:28:18.619Z,17.04
2018-10-07T09:29:18.623Z,16.98
2018-10-07T09:30:18.612Z,17.12
2018-10-07T09:31:18.586Z,16.93
2018-10-07T09:32:18.589Z,16.79
2018-10-07T09:33:18.562Z,16.76
2018-10-07T09:34:18.570Z,16.75
2018-10-07T09:35:18.543Z,16.70
2018-10-07T09:36:18.533Z,16.76
2018-10-07T09:37:18.520Z,16.73
2018-10-07T09:38:18.507Z,16.86
2018-10-07T09:39:18.612Z,16.75
2018-10-07T09:40:18.490Z,16.75
2018-10-07T09:41:18.479Z,16.86
2018-10-07T09:42:18.469Z,17.06
2018-10-07T09:43:18.454Z,17.14
2018-10-07T09:44:18.467Z,17.12
2018-10-07T09:45:18.449Z,17.16
2018-10-07T09:46:18.433Z,17.30
2018-10-07T09:47:18.512Z,17.25
2018-10-07T09:48:18.398Z,17.34
2018-10-07T09:49:18.389Z,17.37
2018-10-07T09:50:18.401Z,17.52
2018-10-07T09:51:18.372Z,17.59
2018-10-07T09:52:18.372Z,17.40
2018-10-07T09:53:18.346Z,17.30
2018-10-07T09:54:18.336Z,17.21
2018-10-07T09:55:18.323Z,17.26
2018-10-07T09:56:18.348Z,17.26
2018-10-07T09:57:18.301Z,17.18
2018-10-07T09:58:18.290Z,17.25
2018-10-07T09:59:18.277Z,17.38
2018-10-07T10:00:18.269Z,17.56
2018-10-07T10:01:18.337Z,17.64
2018-10-07T10:02:18.281Z,17.79
2018-10-07T10:03:18.239Z,17.82
2018-10-07T10:04:18.360Z,18.05
2018-10-07T10:05:18.212Z,18.15
2018-10-07T10:06:18.203Z,18.20
2018-10-07T10:07:18.193Z,18.32
2018-10-07T10:08:18.210Z,18.44
2018-10-07T10:09:18.171Z,18.60
2018-10-07T10:10:18.160Z,18.67
2018-10-07T10:11:18.239Z,18.73
2018-10-07T10:12:18.143Z,18.70
2018-10-07T10:13:18.126Z,18.75
2018-10-07T10:14:18.338Z,18.80
2018-10-07T10:15:18.106Z,18.84
2018-10-07T10:16:18.100Z,18.75
2018-10-07T10:17:18.086Z,18.58
2018-10-07T10:18:18.102Z,18.41
2018-10-07T10:19:18.064Z,18.23
2018-10-07T10:20:18.054Z,17.99
2018-10-07T10:21:18.041Z,18.14
2018-10-07T10:22:18.038Z,18.12
2018-10-07T10:23:18.017Z,18.21
2018-10-07T10:24:18.023Z,18.17
2018-10-07T10:25:18.010Z,18.42
2018-10-07T10:26:17.987Z,18.45
2018-10-07T10:27:18.011Z,18.55
2018-10-07T10:28:17.966Z,18.58
2018-10-07T10:29:17.953Z,18.54
2018-10-07T10:30:17.955Z,18.44
2018-10-07T10:31:17.932Z,18.47
2018-10-07T10:32:17.931Z,18.57
2018-10-07T10:33:17.955Z,18.36
2018-10-07T10:34:17.901Z,18.41
2018-10-07T10:35:17.891Z,18.32
2018-10-07T10:36:17.880Z,18.30
2018-10-07T10:37:17.867Z,18.42
2018-10-07T10:38:17.856Z,18.48
2018-10-07T10:39:17.854Z,18.44
2018-10-07T10:40:17.836Z,18.58
2018-10-07T10:41:17.822Z,18.52
2018-10-07T10:42:17.812Z,18.33
2018-10-07T10:43:17.802Z,18.20
2018-10-07T10:44:17.803Z,18.23
2018-10-07T10:45:17.779Z,18.30
2018-10-07T10:46:17.768Z,18.42
2018-10-07T10:47:17.756Z,18.26
2018-10-07T10:48:17.794Z,18.14
2018-10-07T10:49:17.737Z,18.23
2018-10-07T10:50:17.725Z,18.42
2018-10-07T10:51:17.714Z,18.48
2018-10-07T10:52:17.701Z,18.50
2018-10-07T10:53:17.692Z,18.50
2018-10-07T10:54:17.710Z,18.42
2018-10-07T10:55:17.714Z,18.27
2018-10-07T10:56:17.659Z,18.14
2018-10-07T10:57:17.647Z,18.15
2018-10-07T10:58:17.638Z,18.12
2018-10-07T10:59:17.627Z,18.21
2018-10-07T11:00:17.628Z,18.25
2018-10-07T11:01:17.619Z,18.21
2018-10-07T11:02:17.592Z,18.26
2018-10-07T11:03:17.584Z,18.32
2018-10-07T11:04:17.618Z,18.21
2018-10-07T11:05:17.565Z,18.17
2018-10-07T11:06:17.548Z,18.05
2018-10-07T11:07:17.538Z,18.05
2018-10-07T11:08:17.528Z,17.92
2018-10-07T11:09:17.543Z,17.95
2018-10-07T11:10:17.521Z,18.10
2018-10-07T11:11:17.493Z,18.25
2018-10-07T11:12:17.483Z,18.35
2018-10-07T11:13:17.470Z,18.26
2018-10-07T11:14:17.464Z,18.26
2018-10-07T11:15:17.536Z,18.37
2018-10-07T11:16:17.438Z,18.48
2018-10-07T11:17:17.430Z,18.42
2018-10-07T11:18:17.423Z,18.57
2018-10-07T11:19:17.429Z,18.45
2018-10-07T11:20:17.413Z,18.55
2018-10-07T11:21:17.403Z,18.47
2018-10-07T11:22:17.374Z,18.42
2018-10-07T11:23:17.371Z,18.44
2018-10-07T11:24:17.353Z,18.21
2018-10-07T11:25:17.343Z,18.23
2018-10-07T11:26:17.385Z,18.26
2018-10-07T11:27:17.317Z,18.30
2018-10-07T11:28:17.309Z,18.26
2018-10-07T11:29:17.301Z,18.30
2018-10-07T11:30:17.288Z,18.26
2018-10-07T11:31:17.274Z,18.18
2018-10-07T11:32:17.275Z,18.20
2018-10-07T11:33:17.253Z,18.25
2018-10-07T11:34:17.244Z,18.29
2018-10-07T11:35:17.234Z,18.26
2018-10-07T11:36:17.219Z,18.23
2018-10-07T11:37:17.245Z,18.32
2018-10-07T11:38:17.199Z,18.20
2018-10-07T11:39:17.188Z,18.21
2018-10-07T11:40:17.177Z,18.14
2018-10-07T11:41:17.162Z,18.14
2018-10-07T11:42:17.161Z,18.15
2018-10-07T11:43:17.150Z,18.25
2018-10-07T11:44:17.149Z,18.18
2018-10-07T11:45:17.138Z,18.15
2018-10-07T11:46:17.127Z,18.12
2018-10-07T11:47:17.107Z,17.99
2018-10-07T11:48:17.085Z,17.87
2018-10-07T11:49:17.092Z,17.93
2018-10-07T11:50:17.101Z,18.00
2018-10-07T11:51:17.058Z,18.15
2018-10-07T11:52:17.043Z,18.26
2018-10-07T11:53:17.031Z,18.18
2018-10-07T11:54:17.021Z,18.26
2018-10-07T11:55:17.008Z,18.42
2018-10-07T11:56:17.016Z,18.48
2018-10-07T11:57:16.991Z,18.30
2018-10-07T11:58:16.993Z,18.29
2018-10-07T11:59:16.966Z,18.29
2018-10-07T12:00:16.956Z,18.29
2018-10-07T12:01:16.944Z,18.45
2018-10-07T12:02:17.011Z,18.67
2018-10-07T12:03:16.924Z,18.57
2018-10-07T12:04:16.948Z,18.58
2018-10-07T12:05:16.906Z,18.47
2018-10-07T12:06:16.933Z,18.42
2018-10-07T12:07:16.884Z,18.30
2018-10-07T12:08:16.872Z,18.26
2018-10-07T12:09:16.859Z,18.21
2018-10-07T12:10:16.915Z,18.29
2018-10-07T12:11:16.840Z,18.30
2018-10-07T12:12:16.835Z,18.42
2018-10-07T12:13:16.817Z,18.48
2018-10-07T12:14:16.810Z,18.60
2018-10-07T12:15:16.793Z,18.66
2018-10-07T12:16:16.857Z,18.62
2018-10-07T12:17:16.773Z,18.75
2018-10-07T12:18:16.778Z,18.73
2018-10-07T12:19:16.754Z,18.72
2018-10-07T12:20:16.742Z,18.76
2018-10-07T12:21:16.733Z,18.76
2018-10-07T12:22:16.732Z,18.70
2018-10-07T12:23:16.714Z,18.78
2018-10-07T12:24:16.712Z,18.36
2018-10-07T12:25:16.699Z,18.27
2018-10-07T12:26:16.677Z,18.27
2018-10-07T12:27:16.664Z,18.29
2018-10-07T12:28:16.657Z,18.27
2018-10-07T12:29:16.656Z,18.30
2018-10-07T12:30:16.633Z,18.35
2018-10-07T12:31:16.638Z,18.27
2018-10-07T12:32:16.613Z,18.42
2018-10-07T12:33:16.601Z,18.42
2018-10-07T12:34:16.629Z,18.57
2018-10-07T12:35:16.583Z,18.65
2018-10-07T12:36:16.569Z,18.58
2018-10-07T12:37:16.559Z,18.62
2018-10-07T12:38:16.550Z,18.62
2018-10-07T12:39:16.537Z,18.73
2018-10-07T12:40:16.540Z,18.82
2018-10-07T12:41:16.516Z,18.91
2018-10-07T12:42:16.508Z,18.82
2018-10-07T12:43:16.494Z,18.90
2018-10-07T12:44:16.489Z,18.90
2018-10-07T12:45:16.491Z,18.69
2018-10-07T12:46:16.463Z,18.72
2018-10-07T12:47:16.457Z,18.85
2018-10-07T12:48:16.446Z,18.94
2018-10-07T12:49:16.431Z,18.98
2018-10-07T12:50:16.437Z,18.85
2018-10-07T12:51:16.411Z,18.87
2018-10-07T12:52:16.403Z,18.73
2018-10-07T12:53:16.392Z,18.80
2018-10-07T12:54:16.449Z,18.72
2018-10-07T12:55:16.406Z,18.41
2018-10-07T12:56:16.359Z,18.42